sensor_id;sensor_type;location;lat;lon;timestamp;noise_LAeq;noise_LA_min;noise_LA_max;noise_LA01;noise_LA95
37223;Laerm;28026;48.562;14.440;2023-10-19T00:01:44;42.52;33.44;56.74;;
37223;Laerm;28026;48.562;14.440;2023-10-19T00:04:14;40.54;31.68;46.28;;
37223;Laerm;28026;48.562;14.440;2023-10-19T00:06:45;37.38;32.93;40.23;;
37223;Laerm;28026;48.562;14.440;2023-10-19T00:09:19;39.85;32.35;43.97;;
37223;Laerm;28026;48.562;14.440;2023-10-19T00:11:51;38.37;33.44;43.39;;
37223;Laerm;28026;48.562;14.440;2023-10-19T00:14:22;40.58;32.93;48.66;;
37223;Laerm;28026;48.562;14.440;2023-10-19T00:16:55;37.38;32.35;41.26;;
37223;Laerm;28026;48.562;14.440;2023-10-19T00:19:33;37.63;32.93;42.41;;
37223;Laerm;28026;48.562;14.440;2023-10-19T00:22:10;37.36;32.35;53.52;;
37223;Laerm;28026;48.562;14.440;2023-10-19T00:24:46;37.52;32.35;43.29;;
37223;Laerm;28026;48.562;14.440;2023-10-19T00:27:17;37.57;32.00;49.97;;
37223;Laerm;28026;48.562;14.440;2023-10-19T00:29:49;38.76;32.93;57.94;;
37223;Laerm;28026;48.562;14.440;2023-10-19T00:32:22;38.24;33.44;45.86;;
37223;Laerm;28026;48.562;14.440;2023-10-19T00:34:55;38.07;32.93;40.89;;
37223;Laerm;28026;48.562;14.440;2023-10-19T00:37:26;37.78;32.58;40.62;;
37223;Laerm;28026;48.562;14.440;2023-10-19T00:39:58;37.82;33.44;40.71;;
37223;Laerm;28026;48.562;14.440;2023-10-19T00:42:45;37.94;32.93;41.89;;
37223;Laerm;28026;48.562;14.440;2023-10-19T00:45:17;37.98;32.93;41.53;;
37223;Laerm;28026;48.562;14.440;2023-10-19T00:47:55;37.98;33.90;40.53;;
37223;Laerm;28026;48.562;14.440;2023-10-19T00:50:29;37.60;32.35;41.82;;
37223;Laerm;28026;48.562;14.440;2023-10-19T00:53:02;37.58;33.90;39.81;;
37223;Laerm;28026;48.562;14.440;2023-10-19T00:55:39;38.50;32.93;45.60;;
37223;Laerm;28026;48.562;14.440;2023-10-19T00:58:10;41.60;35.94;45.57;;
37223;Laerm;28026;48.562;14.440;2023-10-19T01:00:44;40.09;33.90;45.66;;
37223;Laerm;28026;48.562;14.440;2023-10-19T01:03:15;38.84;33.44;44.73;;
37223;Laerm;28026;48.562;14.440;2023-10-19T01:05:47;38.09;33.90;41.68;;
37223;Laerm;28026;48.562;14.440;2023-10-19T01:08:19;37.88;31.68;42.03;;
37223;Laerm;28026;48.562;14.440;2023-10-19T01:10:54;38.35;33.90;42.93;;
37223;Laerm;28026;48.562;14.440;2023-10-19T01:13:25;38.10;33.44;41.53;;
37223;Laerm;28026;48.562;14.440;2023-10-19T01:15:59;39.47;33.44;46.15;;
37223;Laerm;28026;48.562;14.440;2023-10-19T01:18:30;38.26;33.44;42.22;;
37223;Laerm;28026;48.562;14.440;2023-10-19T01:21:04;37.90;33.44;41.06;;
37223;Laerm;28026;48.562;14.440;2023-10-19T01:23:37;38.40;33.90;42.59;;
37223;Laerm;28026;48.562;14.440;2023-10-19T01:26:10;38.09;32.93;41.46;;
37223;Laerm;28026;48.562;14.440;2023-10-19T01:28:41;38.22;33.44;40.80;;
37223;Laerm;28026;48.562;14.440;2023-10-19T01:31:22;41.23;32.93;54.04;;
37223;Laerm;28026;48.562;14.440;2023-10-19T01:34:00;40.44;34.31;52.21;;
37223;Laerm;28026;48.562;14.440;2023-10-19T01:36:37;38.31;33.44;41.22;;
37223;Laerm;28026;48.562;14.440;2023-10-19T01:39:13;38.78;34.31;51.58;;
37223;Laerm;28026;48.562;14.440;2023-10-19T01:41:45;43.42;33.90;58.50;;
37223;Laerm;28026;48.562;14.440;2023-10-19T01:44:16;40.43;35.36;45.88;;
37223;Laerm;28026;48.562;14.440;2023-10-19T01:46:47;40.63;34.69;46.76;;
37223;Laerm;28026;48.562;14.440;2023-10-19T01:49:19;40.18;35.04;45.07;;
37223;Laerm;28026;48.562;14.440;2023-10-19T01:51:59;38.51;33.90;44.58;;
37223;Laerm;28026;48.562;14.440;2023-10-19T01:54:31;41.72;36.69;45.23;;
37223;Laerm;28026;48.562;14.440;2023-10-19T01:57:02;38.62;34.69;43.19;;
37223;Laerm;28026;48.562;14.440;2023-10-19T01:59:33;38.12;33.90;40.98;;
37223;Laerm;28026;48.562;14.440;2023-10-19T02:02:05;38.24;33.44;41.22;;
37223;Laerm;28026;48.562;14.440;2023-10-19T02:04:40;40.55;35.94;44.62;;
37223;Laerm;28026;48.562;14.440;2023-10-19T02:07:11;42.30;35.04;52.34;;
37223;Laerm;28026;48.562;14.440;2023-10-19T02:09:48;42.84;35.04;47.55;;
37223;Laerm;28026;48.562;14.440;2023-10-19T02:12:19;43.44;36.34;51.86;;
37223;Laerm;28026;48.562;14.440;2023-10-19T02:14:50;38.98;33.90;43.14;;
37223;Laerm;28026;48.562;14.440;2023-10-19T02:17:21;40.90;35.04;46.89;;
37223;Laerm;28026;48.562;14.440;2023-10-19T02:19:54;39.04;34.31;42.16;;
37223;Laerm;28026;48.562;14.440;2023-10-19T02:22:25;38.44;34.69;41.61;;
37223;Laerm;28026;48.562;14.440;2023-10-19T02:24:56;38.94;34.31;44.19;;
37223;Laerm;28026;48.562;14.440;2023-10-19T02:27:27;40.00;33.90;44.35;;
37223;Laerm;28026;48.562;14.440;2023-10-19T02:29:59;38.63;34.31;42.09;;
37223;Laerm;28026;48.562;14.440;2023-10-19T02:32:30;39.37;34.31;44.31;;
37223;Laerm;28026;48.562;14.440;2023-10-19T02:35:04;42.35;37.12;49.49;;
37223;Laerm;28026;48.562;14.440;2023-10-19T02:37:35;40.25;36.69;43.68;;
37223;Laerm;28026;48.562;14.440;2023-10-19T02:40:07;39.77;35.86;43.77;;
37223;Laerm;28026;48.562;14.440;2023-10-19T02:42:43;39.74;35.01;43.94;;
37223;Laerm;28026;48.562;14.440;2023-10-19T02:45:18;39.59;35.94;43.77;;
37223;Laerm;28026;48.562;14.440;2023-10-19T02:47:49;41.44;36.45;44.65;;
37223;Laerm;28026;48.562;14.440;2023-10-19T02:50:21;42.95;37.88;53.37;;
37223;Laerm;28026;48.562;14.440;2023-10-19T02:52:53;40.21;36.45;43.77;;
37223;Laerm;28026;48.562;14.440;2023-10-19T02:55:24;42.27;36.69;53.11;;
37223;Laerm;28026;48.562;14.440;2023-10-19T02:57:56;44.08;38.05;56.89;;
37223;Laerm;28026;48.562;14.440;2023-10-19T03:00:29;43.69;39.21;51.41;;
37223;Laerm;28026;48.562;14.440;2023-10-19T03:03:04;42.27;37.32;45.97;;
37223;Laerm;28026;48.562;14.440;2023-10-19T03:05:35;40.78;37.12;43.99;;
37223;Laerm;28026;48.562;14.440;2023-10-19T03:08:06;42.26;36.20;52.94;;
37223;Laerm;28026;48.562;14.440;2023-10-19T03:10:38;41.01;35.94;45.36;;
37223;Laerm;28026;48.562;14.440;2023-10-19T03:13:12;41.28;36.45;44.73;;
37223;Laerm;28026;48.562;14.440;2023-10-19T03:15:45;40.53;36.69;49.33;;
37223;Laerm;28026;48.562;14.440;2023-10-19T03:18:16;40.30;36.77;45.01;;
37223;Laerm;28026;48.562;14.440;2023-10-19T03:20:47;42.87;38.21;48.39;;
37223;Laerm;28026;48.562;14.440;2023-10-19T03:23:21;43.34;40.03;46.97;;
37223;Laerm;28026;48.562;14.440;2023-10-19T03:25:56;41.64;37.88;44.54;;
37223;Laerm;28026;48.562;14.440;2023-10-19T03:28:46;41.86;38.37;45.07;;
37223;Laerm;28026;48.562;14.440;2023-10-19T03:31:17;42.51;38.81;47.55;;
37223;Laerm;28026;48.562;14.440;2023-10-19T03:33:53;42.91;39.34;52.41;;
37223;Laerm;28026;48.562;14.440;2023-10-19T03:36:29;43.11;38.95;47.43;;
37223;Laerm;28026;48.562;14.440;2023-10-19T03:39:01;45.12;40.98;55.38;;
37223;Laerm;28026;48.562;14.440;2023-10-19T03:41:42;42.87;38.95;47.54;;
37223;Laerm;28026;48.562;14.440;2023-10-19T03:44:14;42.77;37.88;48.16;;
37223;Laerm;28026;48.562;14.440;2023-10-19T03:46:55;43.75;40.33;49.14;;
37223;Laerm;28026;48.562;14.440;2023-10-19T03:49:31;45.73;41.14;55.71;;
37223;Laerm;28026;48.562;14.440;2023-10-19T03:52:07;42.29;37.52;48.89;;
37223;Laerm;28026;48.562;14.440;2023-10-19T03:54:41;45.79;39.57;60.09;;
37223;Laerm;28026;48.562;14.440;2023-10-19T03:57:15;44.53;40.13;54.99;;
37223;Laerm;28026;48.562;14.440;2023-10-19T03:59:59;44.67;38.81;60.80;;
37223;Laerm;28026;48.562;14.440;2023-10-19T04:02:30;43.78;40.62;51.71;;
37223;Laerm;28026;48.562;14.440;2023-10-19T04:05:06;43.54;39.70;48.02;;
37223;Laerm;28026;48.562;14.440;2023-10-19T04:07:40;41.35;38.05;44.15;;
37223;Laerm;28026;48.562;14.440;2023-10-19T04:10:12;42.39;37.88;50.48;;
37223;Laerm;28026;48.562;14.440;2023-10-19T04:13:00;44.03;39.58;51.45;;
37223;Laerm;28026;48.562;14.440;2023-10-19T04:15:32;42.27;38.81;45.54;;
37223;Laerm;28026;48.562;14.440;2023-10-19T04:18:05;43.71;40.03;50.38;;
37223;Laerm;28026;48.562;14.440;2023-10-19T04:20:42;43.41;40.33;56.12;;
37223;Laerm;28026;48.562;14.440;2023-10-19T04:23:25;44.28;40.71;51.43;;
37223;Laerm;28026;48.562;14.440;2023-10-19T04:25:57;43.95;40.71;52.94;;
37223;Laerm;28026;48.562;14.440;2023-10-19T04:28:29;44.75;41.75;50.20;;
37223;Laerm;28026;48.562;14.440;2023-10-19T04:31:08;43.88;40.43;50.65;;
37223;Laerm;28026;48.562;14.440;2023-10-19T04:33:45;42.49;39.34;48.25;;
37223;Laerm;28026;48.562;14.440;2023-10-19T04:36:16;45.23;40.53;53.50;;
37223;Laerm;28026;48.562;14.440;2023-10-19T04:38:50;44.13;39.70;53.69;;
37223;Laerm;28026;48.562;14.440;2023-10-19T04:41:22;45.10;40.98;54.11;;
37223;Laerm;28026;48.562;14.440;2023-10-19T04:43:53;43.79;41.38;50.35;;
37223;Laerm;28026;48.562;14.440;2023-10-19T04:46:25;44.51;40.80;52.76;;
37223;Laerm;28026;48.562;14.440;2023-10-19T04:48:56;44.09;40.89;51.24;;
37223;Laerm;28026;48.562;14.440;2023-10-19T04:51:28;44.78;41.75;51.13;;
37223;Laerm;28026;48.562;14.440;2023-10-19T04:53:59;43.96;39.92;54.23;;
37223;Laerm;28026;48.562;14.440;2023-10-19T04:56:30;44.26;40.13;52.92;;
37223;Laerm;28026;48.562;14.440;2023-10-19T04:59:03;44.90;40.53;57.74;;
37223;Laerm;28026;48.562;14.440;2023-10-19T05:01:34;44.68;40.62;56.14;;
37223;Laerm;28026;48.562;14.440;2023-10-19T05:04:05;44.78;41.30;56.12;;
37223;Laerm;28026;48.562;14.440;2023-10-19T05:06:36;43.40;39.81;55.96;;
37223;Laerm;28026;48.562;14.440;2023-10-19T05:09:09;43.13;39.58;47.84;;
37223;Laerm;28026;48.562;14.440;2023-10-19T05:11:40;44.81;39.08;57.35;;
37223;Laerm;28026;48.562;14.440;2023-10-19T05:14:14;43.66;40.80;48.07;;
37223;Laerm;28026;48.562;14.440;2023-10-19T05:16:45;43.16;40.33;53.04;;
37223;Laerm;28026;48.562;14.440;2023-10-19T05:19:16;43.03;39.58;47.81;;
37223;Laerm;28026;48.562;14.440;2023-10-19T05:21:47;42.85;38.81;50.56;;
37223;Laerm;28026;48.562;14.440;2023-10-19T05:24:18;43.63;40.71;53.54;;
37223;Laerm;28026;48.562;14.440;2023-10-19T05:26:49;44.22;41.06;54.08;;
37223;Laerm;28026;48.562;14.440;2023-10-19T05:29:21;44.36;41.30;61.12;;
37223;Laerm;28026;48.562;14.440;2023-10-19T05:31:54;44.18;41.53;54.98;;
37223;Laerm;28026;48.562;14.440;2023-10-19T05:34:25;44.86;42.71;52.15;;
37223;Laerm;28026;48.562;14.440;2023-10-19T05:36:59;44.51;41.68;52.00;;
37223;Laerm;28026;48.562;14.440;2023-10-19T05:39:32;45.13;42.22;57.32;;
37223;Laerm;28026;48.562;14.440;2023-10-19T05:42:04;44.03;41.53;54.36;;
37223;Laerm;28026;48.562;14.440;2023-10-19T05:44:36;43.77;40.80;56.47;;
37223;Laerm;28026;48.562;14.440;2023-10-19T05:47:07;44.16;39.34;49.93;;
37223;Laerm;28026;48.562;14.440;2023-10-19T05:49:38;43.57;40.36;47.76;;
37223;Laerm;28026;48.562;14.440;2023-10-19T05:52:09;44.77;40.03;52.39;;
37223;Laerm;28026;48.562;14.440;2023-10-19T05:54:41;44.29;41.55;58.85;;
37223;Laerm;28026;48.562;14.440;2023-10-19T05:57:11;44.63;41.94;63.66;;
37223;Laerm;28026;48.562;14.440;2023-10-19T05:59:42;44.15;41.38;52.42;;
37223;Laerm;28026;48.562;14.440;2023-10-19T06:02:13;43.94;40.63;57.40;;
37223;Laerm;28026;48.562;14.440;2023-10-19T06:04:44;43.45;40.03;51.12;;
37223;Laerm;28026;48.562;14.440;2023-10-19T06:07:15;42.72;39.58;48.74;;
37223;Laerm;28026;48.562;14.440;2023-10-19T06:09:46;43.39;40.62;48.21;;
37223;Laerm;28026;48.562;14.440;2023-10-19T06:12:17;43.52;40.43;58.30;;
37223;Laerm;28026;48.562;14.440;2023-10-19T06:14:47;43.96;41.30;48.39;;
37223;Laerm;28026;48.562;14.440;2023-10-19T06:17:18;43.04;40.23;50.96;;
37223;Laerm;28026;48.562;14.440;2023-10-19T06:19:50;45.74;40.13;53.23;;
37223;Laerm;28026;48.562;14.440;2023-10-19T06:22:21;43.31;40.03;51.53;;
37223;Laerm;28026;48.562;14.440;2023-10-19T06:24:51;43.92;40.13;58.88;;
37223;Laerm;28026;48.562;14.440;2023-10-19T06:27:22;49.07;42.47;57.94;;
37223;Laerm;28026;48.562;14.440;2023-10-19T06:29:54;44.45;41.22;47.70;;
37223;Laerm;28026;48.562;14.440;2023-10-19T06:32:25;44.70;42.29;55.41;;
37223;Laerm;28026;48.562;14.440;2023-10-19T06:34:57;43.83;40.71;50.41;;
37223;Laerm;28026;48.562;14.440;2023-10-19T06:37:28;43.87;41.22;49.69;;
37223;Laerm;28026;48.562;14.440;2023-10-19T06:39:59;44.24;41.46;52.33;;
37223;Laerm;28026;48.562;14.440;2023-10-19T06:42:30;43.62;40.27;53.09;;
37223;Laerm;28026;48.562;14.440;2023-10-19T06:45:01;44.59;41.46;51.60;;
37223;Laerm;28026;48.562;14.440;2023-10-19T06:47:32;45.11;42.22;53.73;;
37223;Laerm;28026;48.562;14.440;2023-10-19T06:50:09;45.79;41.68;58.85;;
37223;Laerm;28026;48.562;14.440;2023-10-19T06:52:42;44.28;40.53;53.21;;
37223;Laerm;28026;48.562;14.440;2023-10-19T06:55:14;43.82;40.89;55.87;;
37223;Laerm;28026;48.562;14.440;2023-10-19T06:57:52;44.15;41.38;53.81;;
37223;Laerm;28026;48.562;14.440;2023-10-19T07:00:25;45.24;41.48;58.08;;
37223;Laerm;28026;48.562;14.440;2023-10-19T07:02:59;44.90;41.30;54.28;;
37223;Laerm;28026;48.562;14.440;2023-10-19T07:05:33;43.18;40.33;52.83;;
37223;Laerm;28026;48.562;14.440;2023-10-19T07:08:05;43.77;40.43;58.31;;
37223;Laerm;28026;48.562;14.440;2023-10-19T07:10:37;45.36;39.21;55.21;;
37223;Laerm;28026;48.562;14.440;2023-10-19T07:13:08;46.69;40.80;58.49;;
37223;Laerm;28026;48.562;14.440;2023-10-19T07:15:39;43.53;40.80;48.36;;
37223;Laerm;28026;48.562;14.440;2023-10-19T07:18:13;43.05;39.46;47.04;;
37223;Laerm;28026;48.562;14.440;2023-10-19T07:20:44;43.99;40.23;52.34;;
37223;Laerm;28026;48.562;14.440;2023-10-19T07:23:19;43.24;40.33;48.25;;
37223;Laerm;28026;48.562;14.440;2023-10-19T07:25:53;43.68;39.70;53.96;;
37223;Laerm;28026;48.562;14.440;2023-10-19T07:28:30;42.99;39.08;49.83;;
37223;Laerm;28026;48.562;14.440;2023-10-19T07:31:02;43.59;40.03;51.81;;
37223;Laerm;28026;48.562;14.440;2023-10-19T07:33:33;43.99;40.33;54.93;;
37223;Laerm;28026;48.562;14.440;2023-10-19T07:36:13;43.03;39.81;46.80;;
37223;Laerm;28026;48.562;14.440;2023-10-19T07:38:45;44.09;40.98;50.91;;
37223;Laerm;28026;48.562;14.440;2023-10-19T07:41:18;45.67;39.70;55.03;;
37223;Laerm;28026;48.562;14.440;2023-10-19T07:43:48;43.33;39.08;56.27;;
37223;Laerm;28026;48.562;14.440;2023-10-19T07:46:19;44.73;41.14;53.03;;
37223;Laerm;28026;48.562;14.440;2023-10-19T07:48:52;42.89;39.70;56.73;;
37223;Laerm;28026;48.562;14.440;2023-10-19T07:51:23;41.91;38.21;52.21;;
37223;Laerm;28026;48.562;14.440;2023-10-19T07:53:54;43.02;39.21;50.28;;
37223;Laerm;28026;48.562;14.440;2023-10-19T07:56:25;43.39;39.34;54.07;;
37223;Laerm;28026;48.562;14.440;2023-10-19T07:58:55;43.70;40.23;51.48;;
37223;Laerm;28026;48.562;14.440;2023-10-19T08:01:27;41.97;37.70;50.44;;
37223;Laerm;28026;48.562;14.440;2023-10-19T08:03:59;43.02;39.21;50.56;;
37223;Laerm;28026;48.562;14.440;2023-10-19T08:06:30;42.33;38.37;45.23;;
37223;Laerm;28026;48.562;14.440;2023-10-19T08:09:01;42.53;38.81;46.97;;
37223;Laerm;28026;48.562;14.440;2023-10-19T08:11:35;44.20;40.62;51.53;;
37223;Laerm;28026;48.562;14.440;2023-10-19T08:14:06;44.91;40.71;59.28;;
37223;Laerm;28026;48.562;14.440;2023-10-19T08:16:37;42.50;39.46;54.59;;
37223;Laerm;28026;48.562;14.440;2023-10-19T08:19:08;42.51;39.46;52.71;;
37223;Laerm;28026;48.562;14.440;2023-10-19T08:21:39;45.50;42.22;60.90;;
37223;Laerm;28026;48.562;14.440;2023-10-19T08:24:10;43.93;40.43;49.46;;
37223;Laerm;28026;48.562;14.440;2023-10-19T08:26:44;45.08;40.62;56.22;;
37223;Laerm;28026;48.562;14.440;2023-10-19T08:29:17;45.43;40.63;58.32;;
37223;Laerm;28026;48.562;14.440;2023-10-19T08:31:50;44.02;38.95;55.39;;
37223;Laerm;28026;48.562;14.440;2023-10-19T08:34:21;43.17;39.21;48.32;;
37223;Laerm;28026;48.562;14.440;2023-10-19T08:36:52;42.39;38.95;45.60;;
37223;Laerm;28026;48.562;14.440;2023-10-19T08:39:24;42.80;39.46;53.69;;
37223;Laerm;28026;48.562;14.440;2023-10-19T08:41:55;43.03;38.52;49.19;;
37223;Laerm;28026;48.562;14.440;2023-10-19T08:44:26;43.50;40.13;50.29;;
37223;Laerm;28026;48.562;14.440;2023-10-19T08:46:57;47.56;40.23;61.50;;
37223;Laerm;28026;48.562;14.440;2023-10-19T08:49:29;43.43;38.37;52.44;;
37223;Laerm;28026;48.562;14.440;2023-10-19T08:52:04;43.14;39.08;51.99;;
37223;Laerm;28026;48.562;14.440;2023-10-19T08:54:37;42.98;38.67;57.86;;
37223;Laerm;28026;48.562;14.440;2023-10-19T08:57:09;43.89;37.88;53.78;;
37223;Laerm;28026;48.562;14.440;2023-10-19T08:59:41;43.29;39.08;47.30;;
37223;Laerm;28026;48.562;14.440;2023-10-19T09:02:11;41.98;38.37;45.51;;
37223;Laerm;28026;48.562;14.440;2023-10-19T09:04:47;42.97;37.70;49.11;;
37223;Laerm;28026;48.562;14.440;2023-10-19T09:07:18;44.78;40.13;53.66;;
37223;Laerm;28026;48.562;14.440;2023-10-19T09:09:49;42.97;39.58;45.51;;
37223;Laerm;28026;48.562;14.440;2023-10-19T09:12:19;43.40;38.05;52.75;;
37223;Laerm;28026;48.562;14.440;2023-10-19T09:14:50;44.81;38.67;55.02;;
37223;Laerm;28026;48.562;14.440;2023-10-19T09:17:29;42.81;37.70;63.90;;
37223;Laerm;28026;48.562;14.440;2023-10-19T09:20:00;42.15;38.52;54.23;;
37223;Laerm;28026;48.562;14.440;2023-10-19T09:22:36;43.72;37.70;68.89;;
37223;Laerm;28026;48.562;14.440;2023-10-19T09:25:08;45.09;39.46;69.12;;
37223;Laerm;28026;48.562;14.440;2023-10-19T09:27:39;49.64;40.80;70.12;;
37223;Laerm;28026;48.562;14.440;2023-10-19T09:30:15;47.59;40.03;66.08;;
37223;Laerm;28026;48.562;14.440;2023-10-19T09:32:51;42.93;37.32;53.00;;
37223;Laerm;28026;48.562;14.440;2023-10-19T09:35:25;42.04;37.70;47.30;;
37223;Laerm;28026;48.562;14.440;2023-10-19T09:37:58;44.91;38.21;57.55;;
37223;Laerm;28026;48.562;14.440;2023-10-19T09:40:30;44.63;38.37;55.17;;
37223;Laerm;28026;48.562;14.440;2023-10-19T09:43:09;43.77;39.34;55.22;;
37223;Laerm;28026;48.562;14.440;2023-10-19T09:45:49;43.28;38.67;59.29;;
37223;Laerm;28026;48.562;14.440;2023-10-19T09:48:22;44.27;41.14;59.77;;
37223;Laerm;28026;48.562;14.440;2023-10-19T09:50:56;42.73;39.68;50.85;;
37223;Laerm;28026;48.562;14.440;2023-10-19T09:53:30;42.30;38.32;53.19;;
37223;Laerm;28026;48.562;14.440;2023-10-19T09:56:19;43.26;37.88;49.84;;
37223;Laerm;28026;48.562;14.440;2023-10-19T09:59:02;43.62;39.46;53.83;;
37223;Laerm;28026;48.562;14.440;2023-10-19T10:02:10;43.68;37.70;54.10;;
37223;Laerm;28026;48.562;14.440;2023-10-19T10:04:44;42.01;38.05;57.32;;
37223;Laerm;28026;48.562;14.440;2023-10-19T10:07:19;45.91;38.52;56.06;;
37223;Laerm;28026;48.562;14.440;2023-10-19T10:09:51;42.95;37.52;61.76;;
37223;Laerm;28026;48.562;14.440;2023-10-19T10:12:26;43.42;35.66;66.04;;
37223;Laerm;28026;48.562;14.440;2023-10-19T10:15:05;44.70;36.45;66.68;;
37223;Laerm;28026;48.562;14.440;2023-10-19T10:17:39;43.17;37.52;54.73;;
37223;Laerm;28026;48.562;14.440;2023-10-19T10:22:45;42.51;37.12;65.19;;
37223;Laerm;28026;48.562;14.440;2023-10-19T10:25:35;41.50;35.94;58.77;;
37223;Laerm;28026;48.562;14.440;2023-10-19T10:28:12;43.23;38.52;51.41;;
37223;Laerm;28026;48.562;14.440;2023-10-19T10:31:22;43.32;38.05;53.33;;
37223;Laerm;28026;48.562;14.440;2023-10-19T10:33:54;42.89;37.52;56.39;;
37223;Laerm;28026;48.562;14.440;2023-10-19T10:36:25;44.53;38.81;61.74;;
37223;Laerm;28026;48.562;14.440;2023-10-19T10:39:03;42.64;38.37;46.59;;
37223;Laerm;28026;48.562;14.440;2023-10-19T10:41:36;44.34;39.58;60.46;;
37223;Laerm;28026;48.562;14.440;2023-10-19T10:44:06;44.35;37.70;57.71;;
37223;Laerm;28026;48.562;14.440;2023-10-19T10:46:40;41.87;37.88;50.47;;
37223;Laerm;28026;48.562;14.440;2023-10-19T10:49:15;44.99;36.91;57.18;;
37223;Laerm;28026;48.562;14.440;2023-10-19T10:51:46;43.32;39.08;56.32;;
37223;Laerm;28026;48.562;14.440;2023-10-19T10:54:21;45.56;38.05;66.74;;
37223;Laerm;28026;48.562;14.440;2023-10-19T10:56:52;41.82;36.69;52.15;;
37223;Laerm;28026;48.562;14.440;2023-10-19T10:59:23;43.86;38.21;67.66;;
37223;Laerm;28026;48.562;14.440;2023-10-19T11:01:54;44.87;38.95;66.87;;
37223;Laerm;28026;48.562;14.440;2023-10-19T11:04:25;43.75;39.70;56.34;;
37223;Laerm;28026;48.562;14.440;2023-10-19T11:06:56;42.93;35.94;61.64;;
37223;Laerm;28026;48.562;14.440;2023-10-19T11:09:27;42.70;38.67;51.49;;
37223;Laerm;28026;48.562;14.440;2023-10-19T11:11:59;41.63;37.32;49.95;;
37223;Laerm;28026;48.562;14.440;2023-10-19T11:14:30;43.46;38.67;51.49;;
37223;Laerm;28026;48.562;14.440;2023-10-19T11:17:13;44.34;40.71;51.51;;
37223;Laerm;28026;48.562;14.440;2023-10-19T11:19:45;42.46;38.21;56.06;;
37223;Laerm;28026;48.562;14.440;2023-10-19T11:22:16;45.63;38.67;57.46;;
37223;Laerm;28026;48.562;14.440;2023-10-19T11:24:47;42.86;38.67;45.51;;
37223;Laerm;28026;48.562;14.440;2023-10-19T11:27:28;42.38;39.08;51.45;;
37223;Laerm;28026;48.562;14.440;2023-10-19T11:30:00;41.69;38.05;45.20;;
37223;Laerm;28026;48.562;14.440;2023-10-19T11:32:38;43.68;38.95;53.42;;
37223;Laerm;28026;48.562;14.440;2023-10-19T11:35:10;42.65;38.05;52.04;;
37223;Laerm;28026;48.562;14.440;2023-10-19T11:37:54;43.40;40.33;50.94;;
37223;Laerm;28026;48.562;14.440;2023-10-19T11:40:27;42.11;38.21;47.86;;
37223;Laerm;28026;48.562;14.440;2023-10-19T11:42:57;42.51;37.88;46.07;;
37223;Laerm;28026;48.562;14.440;2023-10-19T11:45:30;41.50;37.70;44.76;;
37223;Laerm;28026;48.562;14.440;2023-10-19T11:48:01;42.02;38.05;45.83;;
37223;Laerm;28026;48.562;14.440;2023-10-19T11:50:32;41.37;37.52;44.15;;
37223;Laerm;28026;48.562;14.440;2023-10-19T11:53:03;41.01;35.04;49.16;;
37223;Laerm;28026;48.562;14.440;2023-10-19T11:55:36;42.64;38.21;51.19;;
37223;Laerm;28026;48.562;14.440;2023-10-19T11:58:07;42.65;38.21;47.68;;
37223;Laerm;28026;48.562;14.440;2023-10-19T12:00:41;42.69;37.52;56.31;;
37223;Laerm;28026;48.562;14.440;2023-10-19T12:03:14;43.99;38.21;58.37;;
37223;Laerm;28026;48.562;14.440;2023-10-19T12:05:45;41.97;37.52;63.47;;
37223;Laerm;28026;48.562;14.440;2023-10-19T12:08:16;42.17;36.45;52.95;;
37223;Laerm;28026;48.562;14.440;2023-10-19T12:10:49;44.07;40.33;48.66;;
37223;Laerm;28026;48.562;14.440;2023-10-19T12:13:20;43.45;40.33;55.91;;
37223;Laerm;28026;48.562;14.440;2023-10-19T12:15:51;43.36;40.62;52.00;;
37223;Laerm;28026;48.562;14.440;2023-10-19T12:18:25;42.06;37.70;50.80;;
37223;Laerm;28026;48.562;14.440;2023-10-19T12:20:57;42.97;38.81;50.50;;
37223;Laerm;28026;48.562;14.440;2023-10-19T12:23:29;41.66;37.70;44.97;;
37223;Laerm;28026;48.562;14.440;2023-10-19T12:26:02;45.62;37.70;60.78;;
37223;Laerm;28026;48.562;14.440;2023-10-19T12:28:35;44.18;38.21;64.97;;
37223;Laerm;28026;48.562;14.440;2023-10-19T12:31:09;47.08;36.45;73.18;;
37223;Laerm;28026;48.562;14.440;2023-10-19T12:33:41;41.36;35.36;62.55;;
37223;Laerm;28026;48.562;14.440;2023-10-19T12:36:12;42.63;38.21;51.18;;
37223;Laerm;28026;48.562;14.440;2023-10-19T12:38:58;49.66;39.92;65.30;;
37223;Laerm;28026;48.562;14.440;2023-10-19T12:41:31;42.45;37.32;58.14;;
37223;Laerm;28026;48.562;14.440;2023-10-19T12:44:02;44.03;38.52;54.65;;
37223;Laerm;28026;48.562;14.440;2023-10-19T12:46:38;42.85;38.05;61.19;;
37223;Laerm;28026;48.562;14.440;2023-10-19T12:49:10;44.98;39.34;66.76;;
37223;Laerm;28026;48.562;14.440;2023-10-19T12:51:47;43.75;39.81;60.82;;
37223;Laerm;28026;48.562;14.440;2023-10-19T12:54:18;44.09;40.54;48.83;;
37223;Laerm;28026;48.562;14.440;2023-10-19T12:56:49;45.10;39.21;54.40;;
37223;Laerm;28026;48.562;14.440;2023-10-19T12:59:23;43.39;38.02;57.72;;
37223;Laerm;28026;48.562;14.440;2023-10-19T13:01:54;45.05;38.52;58.56;;
37223;Laerm;28026;48.562;14.440;2023-10-19T13:04:29;41.85;38.05;47.72;;
37223;Laerm;28026;48.562;14.440;2023-10-19T13:07:01;42.50;37.88;58.77;;
37223;Laerm;28026;48.562;14.440;2023-10-19T13:09:33;44.12;38.05;67.85;;
37223;Laerm;28026;48.562;14.440;2023-10-19T13:12:06;43.81;37.88;65.51;;
37223;Laerm;28026;48.562;14.440;2023-10-19T13:14:38;44.35;38.21;61.96;;
37223;Laerm;28026;48.562;14.440;2023-10-19T13:17:10;44.03;35.66;64.37;;
37223;Laerm;28026;48.562;14.440;2023-10-19T13:19:41;43.52;38.52;58.95;;
37223;Laerm;28026;48.562;14.440;2023-10-19T13:22:12;44.43;37.70;62.46;;
37223;Laerm;28026;48.562;14.440;2023-10-19T13:24:45;43.54;36.34;65.62;;
37223;Laerm;28026;48.562;14.440;2023-10-19T13:27:16;48.65;37.70;74.55;;
37223;Laerm;28026;48.562;14.440;2023-10-19T13:29:47;41.53;36.45;53.66;;
37223;Laerm;28026;48.562;14.440;2023-10-19T13:32:18;42.24;36.20;50.65;;
37223;Laerm;28026;48.562;14.440;2023-10-19T13:34:49;42.67;36.45;62.99;;
37223;Laerm;28026;48.562;14.440;2023-10-19T13:37:20;42.00;35.94;59.99;;
37223;Laerm;28026;48.562;14.440;2023-10-19T13:39:51;43.67;38.81;58.94;;
37223;Laerm;28026;48.562;14.440;2023-10-19T13:42:22;42.18;37.88;61.13;;
37223;Laerm;28026;48.562;14.440;2023-10-19T13:44:52;42.89;38.18;57.44;;
37223;Laerm;28026;48.562;14.440;2023-10-19T13:47:24;42.13;37.88;51.10;;
37223;Laerm;28026;48.562;14.440;2023-10-19T13:49:55;41.07;36.45;48.63;;
37223;Laerm;28026;48.562;14.440;2023-10-19T13:52:26;41.87;37.32;52.50;;
37223;Laerm;28026;48.562;14.440;2023-10-19T13:54:56;41.62;37.52;51.30;;
37223;Laerm;28026;48.562;14.440;2023-10-19T13:57:28;40.56;35.36;53.38;;
37223;Laerm;28026;48.562;14.440;2023-10-19T13:59:58;41.43;36.69;56.59;;
37223;Laerm;28026;48.562;14.440;2023-10-19T14:02:29;44.58;38.05;61.68;;
37223;Laerm;28026;48.562;14.440;2023-10-19T14:05:00;42.59;35.66;65.00;;
37223;Laerm;28026;48.562;14.440;2023-10-19T14:07:31;42.73;36.20;52.89;;